Погода Настасьинона 2 недели

Смоленская область, Россия

24 мая-06 июня
  • 24мая
    Сегодня
    +5°
    +21°
    Ясно и безоблачно
    ВремяПогодаТемператураВлажностьДавлениеВетер, м/сВероятность осадков
    00:00Ясно и безоблачно+11°C53 %754 мм2.8 м/с2 %
    03:00Ясно и безоблачно+8°C64 %754 мм2.3 м/с2 %
    06:00Ясно и безоблачно+9°C69 %756 мм1.9 м/с2 %
    09:00Ясно и безоблачно+16°C57 %756 мм1.8 м/с2 %
    12:00Ясно и безоблачно+19°C39 %756 мм2.8 м/с2 %
    15:00Ясно и безоблачно+21°C37 %756 мм2.9 м/с2 %
    18:00Ясно и безоблачно+21°C40 %755 мм2.5 м/с2 %
    21:00Ясно и безоблачно+15°C56 %755 мм2.7 м/с2 %
  • 25мая
    Суббота
    +7°
    +24°
    Ясно и безоблачно
    ВремяПогодаТемператураВлажностьДавлениеВетер, м/сВероятность осадков
    00:00Ясно и безоблачно+9°C68 %755 мм2.3 м/с2 %
    03:00Ясно и безоблачно+6°C73 %754 мм2.1 м/с2 %
    06:00Ясно и безоблачно+8°C73 %755 мм2.1 м/с2 %
    09:00Ясно и безоблачно+16°C58 %755 мм1.5 м/с2 %
    12:00Практически безоблачно+20°C41 %754 мм2.2 м/с2 %
    15:00Ясно и безоблачно+23°C36 %753 мм2.6 м/с2 %
    18:00Ясно и безоблачно+23°C40 %751 мм2.1 м/с2 %
    21:00Ясно и безоблачно+16°C67 %751 мм2.5 м/с2 %
  • 26мая
    Воскресенье
    +8°
    +25°
    Облачно с прояснениями
    ВремяПогодаТемператураВлажностьДавлениеВетер, м/сВероятность осадков
    00:00Ясно и безоблачно+10°C74 %750 мм2.2 м/с2 %
    03:00Ясно и безоблачно+7°C87 %750 мм2.1 м/с2 %
    06:00Ясно и безоблачно+10°C84 %750 мм1.9 м/с2 %
    09:00Ясно и безоблачно+20°C58 %751 мм1.1 м/с2 %
    12:00Облачно с прояснениями+23°C42 %751 мм1.6 м/с5 %
    15:00Облачно с прояснениями+24°C46 %750 мм3.3 м/с25 %
    18:00Практически безоблачно+22°C61 %750 мм2.9 м/с28 %
    21:00Практически безоблачно+18°C85 %750 мм1.7 м/с12 %
  • 27мая
    Понедельник
    +9°
    +24°
    Практически безоблачно
    ВремяПогодаТемператураВлажностьДавлениеВетер, м/сВероятность осадков
    00:00Ясно и безоблачно+13°C92 %751 мм1.8 м/с2 %
    03:00Ясно и безоблачно+11°C74 %752 мм2.8 м/с2 %
    06:00Ясно и безоблачно+10°C71 %752 мм2.2 м/с2 %
    09:00Ясно и безоблачно+18°C62 %753 мм1.8 м/с2 %
    12:00Практически безоблачно+22°C48 %752 мм2.3 м/с16 %
    15:00Практически безоблачно+23°C40 %751 мм1.7 м/с19 %
    18:00Ясно и безоблачно+23°C42 %751 мм2.1 м/с16 %
    21:00Ясно и безоблачно+17°C66 %751 мм2.1 м/с2 %
  • 28мая
    Вторник
    +9°
    +25°
    Практически безоблачно
    ВремяПогодаТемператураВлажностьДавлениеВетер, м/сВероятность осадков
    00:00Ясно и безоблачно+12°C81 %750 мм1.9 м/с2 %
    03:00Ясно и безоблачно+10°C88 %750 мм2.0 м/с2 %
    06:00Практически безоблачно+10°C85 %751 мм2.0 м/с2 %
    09:00Ясно и безоблачно+20°C64 %751 мм1.7 м/с2 %
    12:00Ясно и безоблачно+23°C47 %751 мм2.1 м/с10 %
    15:00Практически безоблачно+24°C40 %750 мм1.2 м/с4 %
    18:00Ясно и безоблачно+24°C40 %749 мм1.0 м/с2 %
    21:00Практически безоблачно+19°C60 %748 мм2.1 м/с2 %
Мы используем cookies
Соглашаюсь